sensor_id;sensor_type;location;lat;lon;timestamp;P1;durP1;ratioP1;P2;durP2;ratioP2
15297;SDS011;7750;48.796;9.026;2023-03-13T00:04:26;12.13;;;3.43;;
15297;SDS011;7750;48.796;9.026;2023-03-13T00:09:27;17.50;;;4.10;;
15297;SDS011;7750;48.796;9.026;2023-03-13T00:14:27;7.33;;;3.03;;
15297;SDS011;7750;48.796;9.026;2023-03-13T00:19:28;9.93;;;4.07;;
15297;SDS011;7750;48.796;9.026;2023-03-13T00:24:28;13.40;;;3.67;;
15297;SDS011;7750;48.796;9.026;2023-03-13T00:29:29;10.17;;;3.13;;
15297;SDS011;7750;48.796;9.026;2023-03-13T00:34:32;10.13;;;3.63;;
15297;SDS011;7750;48.796;9.026;2023-03-13T00:39:33;12.27;;;3.87;;
15297;SDS011;7750;48.796;9.026;2023-03-13T00:44:33;13.07;;;3.40;;
15297;SDS011;7750;48.796;9.026;2023-03-13T00:49:34;11.43;;;2.97;;
15297;SDS011;7750;48.796;9.026;2023-03-13T00:54:34;6.83;;;3.30;;
15297;SDS011;7750;48.796;9.026;2023-03-13T00:59:35;6.83;;;3.10;;
15297;SDS011;7750;48.796;9.026;2023-03-13T01:04:36;11.67;;;2.80;;
15297;SDS011;7750;48.796;9.026;2023-03-13T01:09:36;6.63;;;2.20;;
15297;SDS011;7750;48.796;9.026;2023-03-13T01:14:37;6.30;;;2.40;;
15297;SDS011;7750;48.796;9.026;2023-03-13T01:19:38;5.93;;;2.17;;
15297;SDS011;7750;48.796;9.026;2023-03-13T01:24:38;9.50;;;2.90;;
15297;SDS011;7750;48.796;9.026;2023-03-13T01:29:39;4.63;;;2.33;;
15297;SDS011;7750;48.796;9.026;2023-03-13T01:34:39;5.47;;;1.87;;
15297;SDS011;7750;48.796;9.026;2023-03-13T01:39:40;6.70;;;2.67;;
15297;SDS011;7750;48.796;9.026;2023-03-13T01:44:54;10.30;;;2.77;;
15297;SDS011;7750;48.796;9.026;2023-03-13T01:49:56;6.37;;;2.47;;
15297;SDS011;7750;48.796;9.026;2023-03-13T01:55:15;10.73;;;3.70;;
15297;SDS011;7750;48.796;9.026;2023-03-13T02:00:18;7.20;;;2.97;;
15297;SDS011;7750;48.796;9.026;2023-03-13T02:05:23;6.37;;;2.20;;
15297;SDS011;7750;48.796;9.026;2023-03-13T02:10:26;6.50;;;2.03;;
15297;SDS011;7750;48.796;9.026;2023-03-13T02:15:28;7.03;;;2.73;;
15297;SDS011;7750;48.796;9.026;2023-03-13T02:20:30;8.53;;;2.23;;
15297;SDS011;7750;48.796;9.026;2023-03-13T02:30:38;7.67;;;2.30;;
15297;SDS011;7750;48.796;9.026;2023-03-13T02:35:42;4.73;;;2.20;;
15297;SDS011;7750;48.796;9.026;2023-03-13T02:40:44;7.33;;;2.40;;
15297;SDS011;7750;48.796;9.026;2023-03-13T02:56:28;3.40;;;1.80;;
15297;SDS011;7750;48.796;9.026;2023-03-13T03:01:32;4.70;;;1.93;;
15297;SDS011;7750;48.796;9.026;2023-03-13T03:06:33;6.90;;;2.23;;
15297;SDS011;7750;48.796;9.026;2023-03-13T03:11:34;4.73;;;1.63;;
15297;SDS011;7750;48.796;9.026;2023-03-13T03:16:34;10.70;;;2.37;;
15297;SDS011;7750;48.796;9.026;2023-03-13T03:21:35;4.33;;;2.23;;
15297;SDS011;7750;48.796;9.026;2023-03-13T03:26:36;5.70;;;1.97;;
15297;SDS011;7750;48.796;9.026;2023-03-13T03:31:36;3.90;;;2.30;;
15297;SDS011;7750;48.796;9.026;2023-03-13T03:36:37;4.63;;;1.90;;
15297;SDS011;7750;48.796;9.026;2023-03-13T03:41:38;3.47;;;1.50;;
15297;SDS011;7750;48.796;9.026;2023-03-13T03:46:38;5.07;;;1.67;;
15297;SDS011;7750;48.796;9.026;2023-03-13T03:51:39;5.73;;;1.53;;
15297;SDS011;7750;48.796;9.026;2023-03-13T03:56:40;4.33;;;1.40;;
15297;SDS011;7750;48.796;9.026;2023-03-13T04:01:40;2.43;;;1.60;;
15297;SDS011;7750;48.796;9.026;2023-03-13T04:06:42;3.87;;;1.77;;
15297;SDS011;7750;48.796;9.026;2023-03-13T04:11:42;2.37;;;1.40;;
15297;SDS011;7750;48.796;9.026;2023-03-13T04:16:43;3.40;;;1.53;;
15297;SDS011;7750;48.796;9.026;2023-03-13T04:21:43;3.20;;;1.83;;
15297;SDS011;7750;48.796;9.026;2023-03-13T04:26:44;2.80;;;1.47;;
15297;SDS011;7750;48.796;9.026;2023-03-13T04:31:45;2.17;;;1.40;;
15297;SDS011;7750;48.796;9.026;2023-03-13T04:36:45;4.27;;;1.30;;
15297;SDS011;7750;48.796;9.026;2023-03-13T04:41:46;2.50;;;1.43;;
15297;SDS011;7750;48.796;9.026;2023-03-13T04:46:47;2.60;;;1.30;;
15297;SDS011;7750;48.796;9.026;2023-03-13T04:51:48;1.77;;;1.27;;
15297;SDS011;7750;48.796;9.026;2023-03-13T04:56:49;2.73;;;1.73;;
15297;SDS011;7750;48.796;9.026;2023-03-13T05:01:49;8.50;;;1.63;;
15297;SDS011;7750;48.796;9.026;2023-03-13T05:06:50;2.03;;;1.23;;
15297;SDS011;7750;48.796;9.026;2023-03-13T05:11:50;2.37;;;1.60;;
15297;SDS011;7750;48.796;9.026;2023-03-13T05:16:51;2.20;;;1.30;;
15297;SDS011;7750;48.796;9.026;2023-03-13T05:21:52;3.20;;;1.50;;
15297;SDS011;7750;48.796;9.026;2023-03-13T05:26:52;1.70;;;1.20;;
15297;SDS011;7750;48.796;9.026;2023-03-13T05:31:53;1.87;;;1.33;;
15297;SDS011;7750;48.796;9.026;2023-03-13T05:36:53;2.50;;;1.20;;
15297;SDS011;7750;48.796;9.026;2023-03-13T05:41:54;2.73;;;1.40;;
15297;SDS011;7750;48.796;9.026;2023-03-13T05:46:55;3.40;;;1.20;;
15297;SDS011;7750;48.796;9.026;2023-03-13T05:51:55;1.87;;;1.30;;
15297;SDS011;7750;48.796;9.026;2023-03-13T05:56:56;2.93;;;1.10;;
15297;SDS011;7750;48.796;9.026;2023-03-13T06:01:57;2.60;;;1.40;;
15297;SDS011;7750;48.796;9.026;2023-03-13T06:06:58;1.80;;;1.23;;
15297;SDS011;7750;48.796;9.026;2023-03-13T06:11:59;1.40;;;0.87;;
15297;SDS011;7750;48.796;9.026;2023-03-13T06:16:59;2.10;;;1.43;;
15297;SDS011;7750;48.796;9.026;2023-03-13T06:22:00;1.50;;;1.07;;
15297;SDS011;7750;48.796;9.026;2023-03-13T06:27:00;1.60;;;1.10;;
15297;SDS011;7750;48.796;9.026;2023-03-13T06:32:01;2.10;;;1.20;;
15297;SDS011;7750;48.796;9.026;2023-03-13T06:37:02;1.83;;;1.10;;
15297;SDS011;7750;48.796;9.026;2023-03-13T06:42:03;1.33;;;1.00;;
15297;SDS011;7750;48.796;9.026;2023-03-13T06:47:06;3.03;;;1.43;;
15297;SDS011;7750;48.796;9.026;2023-03-13T06:52:07;2.00;;;1.40;;
15297;SDS011;7750;48.796;9.026;2023-03-13T06:57:08;1.27;;;1.10;;
15297;SDS011;7750;48.796;9.026;2023-03-13T07:02:11;4.60;;;1.40;;
15297;SDS011;7750;48.796;9.026;2023-03-13T07:07:12;4.03;;;1.10;;
15297;SDS011;7750;48.796;9.026;2023-03-13T07:12:13;2.27;;;1.40;;
15297;SDS011;7750;48.796;9.026;2023-03-13T07:17:13;2.90;;;1.47;;
15297;SDS011;7750;48.796;9.026;2023-03-13T07:22:14;1.50;;;1.17;;
15297;SDS011;7750;48.796;9.026;2023-03-13T07:27:15;2.20;;;1.40;;
15297;SDS011;7750;48.796;9.026;2023-03-13T07:32:16;1.70;;;1.30;;
15297;SDS011;7750;48.796;9.026;2023-03-13T07:37:17;2.03;;;1.10;;
15297;SDS011;7750;48.796;9.026;2023-03-13T07:42:17;3.50;;;1.83;;
15297;SDS011;7750;48.796;9.026;2023-03-13T07:47:18;1.37;;;1.00;;
15297;SDS011;7750;48.796;9.026;2023-03-13T07:52:19;1.60;;;1.10;;
15297;SDS011;7750;48.796;9.026;2023-03-13T07:57:19;2.03;;;1.20;;
15297;SDS011;7750;48.796;9.026;2023-03-13T08:02:20;1.50;;;1.30;;
15297;SDS011;7750;48.796;9.026;2023-03-13T08:07:21;1.90;;;1.40;;
15297;SDS011;7750;48.796;9.026;2023-03-13T08:12:22;1.83;;;1.40;;
15297;SDS011;7750;48.796;9.026;2023-03-13T08:17:22;1.77;;;1.23;;
15297;SDS011;7750;48.796;9.026;2023-03-13T08:22:23;4.03;;;1.40;;
15297;SDS011;7750;48.796;9.026;2023-03-13T08:27:23;1.87;;;1.50;;
15297;SDS011;7750;48.796;9.026;2023-03-13T08:32:24;2.30;;;1.30;;
15297;SDS011;7750;48.796;9.026;2023-03-13T08:37:24;3.13;;;1.40;;
15297;SDS011;7750;48.796;9.026;2023-03-13T08:42:25;1.90;;;1.17;;
15297;SDS011;7750;48.796;9.026;2023-03-13T08:47:26;2.07;;;1.50;;
15297;SDS011;7750;48.796;9.026;2023-03-13T08:52:27;3.93;;;1.60;;
15297;SDS011;7750;48.796;9.026;2023-03-13T08:57:28;2.37;;;1.60;;
15297;SDS011;7750;48.796;9.026;2023-03-13T09:02:28;1.90;;;1.40;;
15297;SDS011;7750;48.796;9.026;2023-03-13T09:07:29;2.37;;;1.30;;
15297;SDS011;7750;48.796;9.026;2023-03-13T09:12:30;3.00;;;1.53;;
15297;SDS011;7750;48.796;9.026;2023-03-13T09:17:30;4.30;;;1.83;;
15297;SDS011;7750;48.796;9.026;2023-03-13T09:22:31;5.27;;;1.50;;
15297;SDS011;7750;48.796;9.026;2023-03-13T09:27:31;4.70;;;1.43;;
15297;SDS011;7750;48.796;9.026;2023-03-13T09:32:32;3.83;;;1.80;;
15297;SDS011;7750;48.796;9.026;2023-03-13T09:37:33;2.50;;;1.60;;
15297;SDS011;7750;48.796;9.026;2023-03-13T09:42:34;3.43;;;1.70;;
15297;SDS011;7750;48.796;9.026;2023-03-13T09:47:45;4.57;;;1.70;;
15297;SDS011;7750;48.796;9.026;2023-03-13T09:52:52;2.80;;;1.93;;
15297;SDS011;7750;48.796;9.026;2023-03-13T09:58:02;2.00;;;1.47;;
15297;SDS011;7750;48.796;9.026;2023-03-13T10:08:27;5.83;;;2.07;;
15297;SDS011;7750;48.796;9.026;2023-03-13T10:19:21;2.83;;;1.80;;
15297;SDS011;7750;48.796;9.026;2023-03-13T10:24:37;4.50;;;2.23;;
15297;SDS011;7750;48.796;9.026;2023-03-13T10:29:45;5.77;;;3.23;;
15297;SDS011;7750;48.796;9.026;2023-03-13T10:34:56;3.20;;;1.97;;
15297;SDS011;7750;48.796;9.026;2023-03-13T10:45:23;3.30;;;1.30;;
15297;SDS011;7750;48.796;9.026;2023-03-13T10:50:25;2.33;;;1.90;;
15297;SDS011;7750;48.796;9.026;2023-03-13T10:55:27;4.90;;;2.17;;
15297;SDS011;7750;48.796;9.026;2023-03-13T11:00:34;3.93;;;2.00;;
15297;SDS011;7750;48.796;9.026;2023-03-13T11:05:39;1.93;;;1.67;;
15297;SDS011;7750;48.796;9.026;2023-03-13T11:11:03;3.60;;;2.17;;
15297;SDS011;7750;48.796;9.026;2023-03-13T11:16:08;3.70;;;1.80;;
15297;SDS011;7750;48.796;9.026;2023-03-13T11:21:14;4.37;;;2.40;;
15297;SDS011;7750;48.796;9.026;2023-03-13T11:26:28;3.33;;;2.30;;
15297;SDS011;7750;48.796;9.026;2023-03-13T11:31:41;3.90;;;2.53;;
15297;SDS011;7750;48.796;9.026;2023-03-13T11:36:51;3.50;;;2.03;;
15297;SDS011;7750;48.796;9.026;2023-03-13T12:03:03;6.37;;;2.50;;
15297;SDS011;7750;48.796;9.026;2023-03-13T12:08:17;4.00;;;1.93;;
15297;SDS011;7750;48.796;9.026;2023-03-13T12:13:31;3.00;;;1.67;;
15297;SDS011;7750;48.796;9.026;2023-03-13T12:18:39;2.87;;;1.80;;
15297;SDS011;7750;48.796;9.026;2023-03-13T12:23:45;4.07;;;2.07;;
15297;SDS011;7750;48.796;9.026;2023-03-13T12:34:46;9.00;;;2.00;;
15297;SDS011;7750;48.796;9.026;2023-03-13T12:45:27;1.90;;;1.60;;
15297;SDS011;7750;48.796;9.026;2023-03-13T12:50:41;2.73;;;1.70;;
15297;SDS011;7750;48.796;9.026;2023-03-13T12:56:27;1.93;;;1.50;;
15297;SDS011;7750;48.796;9.026;2023-03-13T13:01:54;5.67;;;1.93;;
15297;SDS011;7750;48.796;9.026;2023-03-13T13:12:02;6.70;;;1.60;;
15297;SDS011;7750;48.796;9.026;2023-03-13T13:17:24;2.10;;;1.63;;
15297;SDS011;7750;48.796;9.026;2023-03-13T13:32:39;2.20;;;1.30;;
15297;SDS011;7750;48.796;9.026;2023-03-13T13:37:42;2.57;;;1.60;;
15297;SDS011;7750;48.796;9.026;2023-03-13T13:42:46;4.80;;;1.43;;
15297;SDS011;7750;48.796;9.026;2023-03-13T13:53:32;2.10;;;1.50;;
15297;SDS011;7750;48.796;9.026;2023-03-13T13:58:41;3.27;;;1.50;;
15297;SDS011;7750;48.796;9.026;2023-03-13T14:03:44;2.30;;;1.53;;
15297;SDS011;7750;48.796;9.026;2023-03-13T14:08:47;2.27;;;1.50;;
15297;SDS011;7750;48.796;9.026;2023-03-13T14:19:26;2.80;;;1.47;;
15297;SDS011;7750;48.796;9.026;2023-03-13T14:24:34;5.50;;;1.60;;
15297;SDS011;7750;48.796;9.026;2023-03-13T14:29:36;3.07;;;1.50;;
15297;SDS011;7750;48.796;9.026;2023-03-13T14:34:36;3.70;;;1.60;;
15297;SDS011;7750;48.796;9.026;2023-03-13T14:39:41;9.10;;;2.37;;
15297;SDS011;7750;48.796;9.026;2023-03-13T14:44:47;3.40;;;1.40;;
15297;SDS011;7750;48.796;9.026;2023-03-13T14:49:54;2.10;;;1.53;;
15297;SDS011;7750;48.796;9.026;2023-03-13T14:55:04;1.80;;;1.20;;
15297;SDS011;7750;48.796;9.026;2023-03-13T15:00:20;2.50;;;1.47;;
15297;SDS011;7750;48.796;9.026;2023-03-13T15:05:34;5.23;;;1.83;;
15297;SDS011;7750;48.796;9.026;2023-03-13T15:10:35;2.60;;;1.50;;
15297;SDS011;7750;48.796;9.026;2023-03-13T15:15:36;2.90;;;1.60;;
15297;SDS011;7750;48.796;9.026;2023-03-13T15:20:37;2.97;;;1.60;;
15297;SDS011;7750;48.796;9.026;2023-03-13T15:25:37;1.90;;;1.30;;
15297;SDS011;7750;48.796;9.026;2023-03-13T15:30:39;2.80;;;1.60;;
15297;SDS011;7750;48.796;9.026;2023-03-13T15:35:41;2.50;;;1.60;;
15297;SDS011;7750;48.796;9.026;2023-03-13T15:40:42;5.00;;;1.70;;
15297;SDS011;7750;48.796;9.026;2023-03-13T15:45:44;7.50;;;1.60;;
15297;SDS011;7750;48.796;9.026;2023-03-13T15:50:55;3.20;;;1.47;;
15297;SDS011;7750;48.796;9.026;2023-03-13T15:55:59;2.83;;;1.60;;
15297;SDS011;7750;48.796;9.026;2023-03-13T16:01:01;4.90;;;1.60;;
15297;SDS011;7750;48.796;9.026;2023-03-13T16:06:05;3.17;;;1.30;;
15297;SDS011;7750;48.796;9.026;2023-03-13T16:11:14;2.47;;;2.20;;
15297;SDS011;7750;48.796;9.026;2023-03-13T16:16:23;2.50;;;1.63;;
15297;SDS011;7750;48.796;9.026;2023-03-13T16:21:28;4.00;;;1.80;;
15297;SDS011;7750;48.796;9.026;2023-03-13T16:26:30;3.53;;;1.67;;
15297;SDS011;7750;48.796;9.026;2023-03-13T16:31:31;2.57;;;1.70;;
15297;SDS011;7750;48.796;9.026;2023-03-13T16:36:32;3.40;;;1.57;;
15297;SDS011;7750;48.796;9.026;2023-03-13T16:41:34;2.60;;;1.60;;
15297;SDS011;7750;48.796;9.026;2023-03-13T16:46:38;2.23;;;1.53;;
15297;SDS011;7750;48.796;9.026;2023-03-13T16:51:40;4.50;;;1.50;;
15297;SDS011;7750;48.796;9.026;2023-03-13T16:56:41;6.23;;;1.80;;
15297;SDS011;7750;48.796;9.026;2023-03-13T17:01:43;5.37;;;1.70;;
15297;SDS011;7750;48.796;9.026;2023-03-13T17:06:45;2.60;;;1.60;;
15297;SDS011;7750;48.796;9.026;2023-03-13T17:11:46;3.27;;;1.70;;
15297;SDS011;7750;48.796;9.026;2023-03-13T17:16:47;2.50;;;1.70;;
15297;SDS011;7750;48.796;9.026;2023-03-13T17:21:48;2.50;;;1.80;;
15297;SDS011;7750;48.796;9.026;2023-03-13T17:26:48;2.20;;;1.43;;
15297;SDS011;7750;48.796;9.026;2023-03-13T17:31:49;4.60;;;1.80;;
15297;SDS011;7750;48.796;9.026;2023-03-13T17:36:50;2.87;;;1.97;;
15297;SDS011;7750;48.796;9.026;2023-03-13T17:41:50;7.03;;;2.30;;
15297;SDS011;7750;48.796;9.026;2023-03-13T17:46:51;6.63;;;4.07;;
15297;SDS011;7750;48.796;9.026;2023-03-13T17:51:51;2.97;;;1.87;;
15297;SDS011;7750;48.796;9.026;2023-03-13T17:56:52;6.60;;;1.70;;
15297;SDS011;7750;48.796;9.026;2023-03-13T18:01:55;3.93;;;1.60;;
15297;SDS011;7750;48.796;9.026;2023-03-13T18:06:56;2.03;;;1.40;;
15297;SDS011;7750;48.796;9.026;2023-03-13T18:11:56;3.40;;;1.73;;
15297;SDS011;7750;48.796;9.026;2023-03-13T18:16:57;2.00;;;1.27;;
15297;SDS011;7750;48.796;9.026;2023-03-13T18:21:57;4.60;;;1.90;;
15297;SDS011;7750;48.796;9.026;2023-03-13T18:26:58;6.80;;;5.40;;
15297;SDS011;7750;48.796;9.026;2023-03-13T18:31:58;3.47;;;2.00;;
15297;SDS011;7750;48.796;9.026;2023-03-13T18:36:59;2.30;;;1.50;;
15297;SDS011;7750;48.796;9.026;2023-03-13T18:42:05;7.53;;;2.30;;
15297;SDS011;7750;48.796;9.026;2023-03-13T18:47:13;3.93;;;2.07;;
15297;SDS011;7750;48.796;9.026;2023-03-13T18:52:16;3.47;;;1.90;;
15297;SDS011;7750;48.796;9.026;2023-03-13T18:57:17;3.87;;;1.80;;
15297;SDS011;7750;48.796;9.026;2023-03-13T19:02:18;7.73;;;1.73;;
15297;SDS011;7750;48.796;9.026;2023-03-13T19:07:23;4.60;;;2.33;;
15297;SDS011;7750;48.796;9.026;2023-03-13T19:12:25;6.20;;;2.20;;
15297;SDS011;7750;48.796;9.026;2023-03-13T19:17:26;6.57;;;1.90;;
15297;SDS011;7750;48.796;9.026;2023-03-13T19:22:28;4.07;;;2.30;;
15297;SDS011;7750;48.796;9.026;2023-03-13T19:27:29;2.77;;;2.20;;
15297;SDS011;7750;48.796;9.026;2023-03-13T19:32:30;4.00;;;2.50;;
15297;SDS011;7750;48.796;9.026;2023-03-13T19:37:31;4.87;;;2.63;;
15297;SDS011;7750;48.796;9.026;2023-03-13T19:42:31;4.10;;;2.50;;
15297;SDS011;7750;48.796;9.026;2023-03-13T19:47:34;4.40;;;1.63;;
15297;SDS011;7750;48.796;9.026;2023-03-13T19:52:34;5.10;;;1.73;;
15297;SDS011;7750;48.796;9.026;2023-03-13T19:57:35;3.63;;;1.93;;
15297;SDS011;7750;48.796;9.026;2023-03-13T20:02:36;2.20;;;1.70;;
15297;SDS011;7750;48.796;9.026;2023-03-13T20:07:36;5.23;;;1.80;;
15297;SDS011;7750;48.796;9.026;2023-03-13T20:12:37;3.93;;;1.27;;
15297;SDS011;7750;48.796;9.026;2023-03-13T20:17:38;2.63;;;1.10;;
15297;SDS011;7750;48.796;9.026;2023-03-13T20:22:38;1.90;;;1.20;;
15297;SDS011;7750;48.796;9.026;2023-03-13T20:27:42;1.60;;;1.10;;
15297;SDS011;7750;48.796;9.026;2023-03-13T20:32:42;1.70;;;1.07;;
15297;SDS011;7750;48.796;9.026;2023-03-13T20:37:43;1.33;;;0.90;;
15297;SDS011;7750;48.796;9.026;2023-03-13T20:42:44;1.93;;;1.37;;
15297;SDS011;7750;48.796;9.026;2023-03-13T20:47:44;1.77;;;1.27;;
15297;SDS011;7750;48.796;9.026;2023-03-13T20:52:45;1.70;;;1.40;;
15297;SDS011;7750;48.796;9.026;2023-03-13T20:57:47;3.00;;;1.30;;
15297;SDS011;7750;48.796;9.026;2023-03-13T21:02:48;2.10;;;1.30;;
15297;SDS011;7750;48.796;9.026;2023-03-13T21:07:49;2.43;;;1.10;;
15297;SDS011;7750;48.796;9.026;2023-03-13T21:12:50;2.83;;;1.40;;
15297;SDS011;7750;48.796;9.026;2023-03-13T21:17:50;5.23;;;1.40;;
15297;SDS011;7750;48.796;9.026;2023-03-13T21:22:52;2.60;;;1.13;;
15297;SDS011;7750;48.796;9.026;2023-03-13T21:27:53;5.37;;;2.20;;
15297;SDS011;7750;48.796;9.026;2023-03-13T21:32:54;2.30;;;1.43;;
15297;SDS011;7750;48.796;9.026;2023-03-13T21:37:54;1.70;;;1.00;;
15297;SDS011;7750;48.796;9.026;2023-03-13T21:42:55;1.50;;;1.10;;
15297;SDS011;7750;48.796;9.026;2023-03-13T21:47:56;5.07;;;1.30;;
15297;SDS011;7750;48.796;9.026;2023-03-13T21:52:57;3.20;;;1.70;;
15297;SDS011;7750;48.796;9.026;2023-03-13T21:57:58;1.50;;;1.10;;
15297;SDS011;7750;48.796;9.026;2023-03-13T22:02:59;3.37;;;1.00;;
15297;SDS011;7750;48.796;9.026;2023-03-13T22:07:59;1.77;;;1.03;;
15297;SDS011;7750;48.796;9.026;2023-03-13T22:13:00;3.30;;;1.57;;
15297;SDS011;7750;48.796;9.026;2023-03-13T22:18:00;1.23;;;0.93;;
15297;SDS011;7750;48.796;9.026;2023-03-13T22:23:01;1.83;;;1.07;;
15297;SDS011;7750;48.796;9.026;2023-03-13T22:28:02;1.70;;;1.07;;
15297;SDS011;7750;48.796;9.026;2023-03-13T22:33:03;1.40;;;1.10;;
15297;SDS011;7750;48.796;9.026;2023-03-13T22:38:05;2.17;;;1.67;;
15297;SDS011;7750;48.796;9.026;2023-03-13T22:43:06;1.73;;;1.07;;
15297;SDS011;7750;48.796;9.026;2023-03-13T22:48:07;1.30;;;0.93;;
15297;SDS011;7750;48.796;9.026;2023-03-13T22:53:08;1.97;;;1.07;;
15297;SDS011;7750;48.796;9.026;2023-03-13T22:58:09;2.27;;;1.17;;
15297;SDS011;7750;48.796;9.026;2023-03-13T23:03:09;2.10;;;1.10;;
15297;SDS011;7750;48.796;9.026;2023-03-13T23:08:10;2.13;;;1.20;;
15297;SDS011;7750;48.796;9.026;2023-03-13T23:13:11;1.20;;;0.97;;
15297;SDS011;7750;48.796;9.026;2023-03-13T23:18:12;2.33;;;1.30;;
15297;SDS011;7750;48.796;9.026;2023-03-13T23:23:13;2.00;;;1.03;;
15297;SDS011;7750;48.796;9.026;2023-03-13T23:28:13;2.13;;;1.10;;
15297;SDS011;7750;48.796;9.026;2023-03-13T23:33:14;1.57;;;1.07;;
15297;SDS011;7750;48.796;9.026;2023-03-13T23:38:14;1.30;;;1.10;;
15297;SDS011;7750;48.796;9.026;2023-03-13T23:43:17;3.53;;;1.23;;
15297;SDS011;7750;48.796;9.026;2023-03-13T23:48:17;3.87;;;1.70;;
15297;SDS011;7750;48.796;9.026;2023-03-13T23:53:18;1.43;;;1.00;;
15297;SDS011;7750;48.796;9.026;2023-03-13T23:58:19;2.10;;;1.20;;
